SBBI

Bacacheri Airport

Curitiba, Brazil
TAF SBBI 191430Z 1918/2006 10008KT 9999 BKN018 TX16/1918Z TN12/2006Z BECMG 1920/1922 BKN008 RMK PER
Issued Valid From Valid To
Nov-19 @ 14:30 UTC
(8 hours ago)
Nov-19 @ 18:00 UTC
(4 hours ago)
Nov-20 @ 06:00 UTC
(in 8 hours)
Expired Click to View Nov-19 @ 18:00 to Nov-19 @ 20:00
TAF SBBI 191430Z 1918/2006 10008KT 9999 BKN018 TX16/1918Z TN12/2006Z
Wind Visibility Clouds
100° at 8 knots 10,000+ meters
  • Broken at 1,800' AGL
Becoming Nov-19 @ 20:00 to Nov-20 @ 06:00
BECMG 1920/1922 BKN008 RMK PER
Wind Visibility Clouds
100° at 8 knots 10,000+ meters
  • Broken at 800' AGL
TAF SBBI 191430Z 1918/2006 10008KT 9999 BKN018 TX16/1918Z TN12/2006Z BECMG 1920/1922 BKN008 RMK PER
Issued Nov-19 @ 14:30 UTC
(8 hours ago)
Valid From Nov-19 @ 18:00 UTC
(4 hours ago)
Valid To Nov-20 @ 06:00 UTC
(in 8 hours)
Nov-19 @ 18:00 - Nov-19 @ 20:00
Wind Visibility
100° at 8 knots 10,000+ meters
Clouds
  • Broken at 1,800' AGL
Becoming Nov-19 @ 20:00 - Nov-20 @ 06:00
Wind Visibility
100° at 8 knots 10,000+ meters
Clouds
  • Broken at 800' AGL